Terminal Aerodrome Forecast
Issued by NWS

Home | Current Version | Previous Version | Text Only | Print | Product List | Glossary On
Versions: 1 2 3 4 5 6 7 8 9 10 11 12 13 14 15 16 17 18 19 20 21 22 23 24 25
000
FTUS43 KDLH 190500
TAFBRD
TAF
KBRD 190539Z 1906/2006 12011G22KT P6SM BKN150
     FM190900 14018G28KT P6SM VCSH OVC090
     FM191100 15020G28KT P6SM VCSH OVC080
     FM191700 19015G23KT P6SM SCT080 BKN120
     FM192100 22010KT P6SM SCT120
     FM200300 21005KT P6SM SKC=

USA.gov is the U.S. government's official web portal to all federal, state and local government web resources and services.